Dubai, United Arab Emirates
Current Conditions -  °F | °C
As of 1:00 PM on Thursday 23 Oct 2014 (Local Time) from OMDB Reporting Station
Few Clouds Few Clouds  
Wind Chill: 31°   Ceiling: Unl
Heat Index: 32°   Visibility: 6mi
Dew Point: 19°   Wind: 15mph
Humidity: 49%   Direction: 290°WNW
Pressure: 29.94"   Gusts: NA
Location:  25.27°N, 55.33°E
Report Text: OMDB 230900Z 29013KT 240V310 9999 FEW040 31/19 Q1014 NOSIG
Loading
Personal Weather Stations






























Interactive Weather Map
Tropical Storm Tracking
New forecast layout! Learn more

10-Day Weather Forecast

Advertisements
Track Severe Weather on mobile